Terminal Aerodrome Forecast
Issued by NWS Jackson, KY

Home | Current Version | Previous Version | Text Only | Print | Product List | Glossary On
Versions: 1 2 3 4 5 6 7 8 9 10 11 12 13
000
FTUS43 KJKL 251726 CCA
TAFLOZ
TAF COR
KLOZ 251726Z 2518/2618 21007KT P6SM VCSH BKN050
      TEMPO 2602/2606 5SM -SHRA BR
     FM260600 18003KT P6SM SCT040 BKN150
     FM261600 21009KT P6SM VCTS BKN040CB BKN250=

USA.gov is the U.S. government's official web portal to all federal, state and local government web resources and services.